createdAt,value
2018-04-22T00:01:24.366Z,8.70
2018-04-22T00:03:51.955Z,8.67
2018-04-22T00:06:19.554Z,8.54
2018-04-22T00:08:47.127Z,8.47
2018-04-22T00:11:14.714Z,8.49
2018-04-22T00:13:42.323Z,8.53
2018-04-22T00:16:10.007Z,8.38
2018-04-22T00:18:37.585Z,8.40
2018-04-22T00:21:05.193Z,8.53
2018-04-22T00:23:32.790Z,8.73
2018-04-22T00:26:00.367Z,8.76
2018-04-22T00:28:27.967Z,8.55
2018-04-22T00:30:55.539Z,8.46
2018-04-22T00:33:23.104Z,8.36
2018-04-22T00:35:50.703Z,8.31
2018-04-22T00:38:18.269Z,8.14
2018-04-22T00:40:45.843Z,8.13
2018-04-22T00:43:13.655Z,8.25
2018-04-22T00:45:41.228Z,8.10
2018-04-22T00:48:08.798Z,8.09
2018-04-22T00:50:36.478Z,8.10
2018-04-22T00:53:04.107Z,8.11
2018-04-22T00:55:31.687Z,8.19
2018-04-22T00:57:59.308Z,8.20
2018-04-22T01:00:26.888Z,8.22
2018-04-22T01:02:54.460Z,8.22
2018-04-22T01:05:22.081Z,8.20
2018-04-22T01:07:49.664Z,8.15
2018-04-22T01:10:17.239Z,8.10
2018-04-22T01:12:44.837Z,8.25
2018-04-22T01:15:12.396Z,8.03
2018-04-22T01:17:39.968Z,8.14
2018-04-22T01:20:07.695Z,8.17
2018-04-22T01:22:35.285Z,8.20
2018-04-22T01:25:02.833Z,7.99
2018-04-22T01:27:30.434Z,7.91
2018-04-22T01:29:58.007Z,7.85
2018-04-22T01:32:25.681Z,7.95
2018-04-22T01:34:53.291Z,7.83
2018-04-22T01:37:20.865Z,7.88
2018-04-22T01:39:48.435Z,7.91
2018-04-22T01:42:16.042Z,7.87
2018-04-22T01:44:43.608Z,7.79
2018-04-22T01:47:11.192Z,7.92
2018-04-22T01:49:38.858Z,7.87
2018-04-22T01:52:06.502Z,7.93
2018-04-22T01:54:34.087Z,7.82
2018-04-22T01:57:01.679Z,7.89
2018-04-22T01:59:29.299Z,7.82
2018-04-22T02:01:56.907Z,7.82
2018-04-22T02:04:24.484Z,7.98
2018-04-22T02:06:52.058Z,7.97
2018-04-22T02:09:19.673Z,8.11
2018-04-22T02:11:47.292Z,7.94
2018-04-22T02:14:14.876Z,7.84
2018-04-22T02:16:42.453Z,7.76
2018-04-22T02:19:10.080Z,7.59
2018-04-22T02:21:37.675Z,7.51
2018-04-22T02:24:05.256Z,7.53
2018-04-22T02:26:32.874Z,7.46
2018-04-22T02:29:00.460Z,7.61
2018-04-22T02:31:28.045Z,7.72
2018-04-22T02:33:55.723Z,7.68
2018-04-22T02:36:23.297Z,7.56
2018-04-22T02:38:50.929Z,7.75
2018-04-22T02:41:18.569Z,7.81
2018-04-22T02:43:46.151Z,7.85
2018-04-22T02:46:13.726Z,7.85
2018-04-22T02:48:41.330Z,8.06
2018-04-22T02:51:08.908Z,8.09
2018-04-22T02:53:36.502Z,8.04
2018-04-22T02:56:04.128Z,7.97
2018-04-22T02:58:31.706Z,7.98
2018-04-22T03:00:59.285Z,7.92
2018-04-22T03:03:26.901Z,7.84
2018-04-22T03:05:54.484Z,7.71
2018-04-22T03:08:22.063Z,7.77
2018-04-22T03:10:49.685Z,7.59
2018-04-22T03:13:17.288Z,7.56
2018-04-22T03:15:44.858Z,7.44
2018-04-22T03:18:12.456Z,7.35
2018-04-22T03:20:40.018Z,7.29
2018-04-22T03:23:07.597Z,7.28
2018-04-22T03:25:35.209Z,7.47
2018-04-22T03:28:02.779Z,7.49
2018-04-22T03:30:30.355Z,7.59
2018-04-22T03:32:57.975Z,7.53
2018-04-22T03:35:25.560Z,7.44
2018-04-22T03:37:53.140Z,7.38
2018-04-22T03:40:20.767Z,7.34
2018-04-22T03:42:48.332Z,7.41
2018-04-22T03:45:15.904Z,7.41
2018-04-22T03:47:43.517Z,7.74
2018-04-22T03:50:11.141Z,7.66
2018-04-22T03:52:38.710Z,7.74
2018-04-22T03:55:06.322Z,8.68
2018-04-22T03:57:33.897Z,9.79
2018-04-22T04:00:01.476Z,10.80
2018-04-22T04:02:29.096Z,11.74
2018-04-22T04:04:56.686Z,12.52
2018-04-22T04:07:24.276Z,13.25
2018-04-22T04:09:51.945Z,14.01
2018-04-22T04:12:19.544Z,14.71
2018-04-22T04:14:47.136Z,15.71
2018-04-22T04:17:14.753Z,16.75
2018-04-22T04:19:54.060Z,17.43
2018-04-22T04:22:33.336Z,17.88
2018-04-22T04:25:40.212Z,18.06
2018-04-22T04:28:07.829Z,18.42
2018-04-22T04:30:35.415Z,18.55
2018-04-22T04:33:02.978Z,18.62
2018-04-22T04:35:30.595Z,19.30
2018-04-22T04:37:58.177Z,19.14
2018-04-22T04:40:25.751Z,19.29
2018-04-22T04:42:53.371Z,19.09
2018-04-22T04:45:20.954Z,20.14
2018-04-22T04:47:48.547Z,20.18
2018-04-22T04:50:16.171Z,20.84
2018-04-22T04:52:43.793Z,21.97
2018-04-22T04:55:11.423Z,22.67
2018-04-22T04:57:39.037Z,22.84
2018-04-22T05:00:06.642Z,21.20
2018-04-22T05:02:34.213Z,21.51
2018-04-22T05:05:01.823Z,22.71
2018-04-22T05:07:29.390Z,23.40
2018-04-22T05:09:56.969Z,23.21
2018-04-22T05:12:24.586Z,24.11
2018-04-22T05:14:52.169Z,25.48
2018-04-22T05:17:19.751Z,26.21
2018-04-22T05:19:47.353Z,27.01
2018-04-22T05:22:14.927Z,27.32
2018-04-22T05:24:42.502Z,28.08
2018-04-22T05:27:10.112Z,28.35
2018-04-22T05:29:37.688Z,28.47
2018-04-22T05:32:05.266Z,27.64
2018-04-22T05:34:32.871Z,27.43
2018-04-22T05:37:00.448Z,27.86
2018-04-22T05:39:28.027Z,26.91
2018-04-22T05:41:55.642Z,27.00
2018-04-22T05:44:23.220Z,27.79
2018-04-22T05:46:50.794Z,26.77
2018-04-22T05:49:18.398Z,27.22
2018-04-22T05:51:45.978Z,27.46
2018-04-22T05:54:13.604Z,28.07
2018-04-22T05:56:41.228Z,29.15
2018-04-22T05:59:08.812Z,28.14
2018-04-22T06:01:36.412Z,28.08
2018-04-22T06:04:04.032Z,28.76
2018-04-22T06:06:31.607Z,29.83
2018-04-22T06:08:59.288Z,29.57
2018-04-22T06:11:26.915Z,29.39
2018-04-22T06:13:54.492Z,30.47
2018-04-22T06:16:22.119Z,30.04
2018-04-22T06:18:49.789Z,29.47
2018-04-22T06:21:17.566Z,30.24
2018-04-22T06:23:45.158Z,30.87
2018-04-22T06:26:12.790Z,30.82
2018-04-22T06:28:40.379Z,31.13
2018-04-22T06:31:07.986Z,32.54
2018-04-22T06:33:35.639Z,31.71
2018-04-22T06:36:03.252Z,31.74
2018-04-22T06:38:30.844Z,32.29
2018-04-22T06:40:58.493Z,32.67
2018-04-22T06:43:26.086Z,32.53
2018-04-22T06:45:53.673Z,33.28
2018-04-22T06:48:21.299Z,34.13
2018-04-22T06:50:48.884Z,33.82
2018-04-22T06:53:16.519Z,33.39
2018-04-22T06:55:44.138Z,33.08
2018-04-22T06:58:11.719Z,32.91
2018-04-22T07:00:39.301Z,33.21
2018-04-22T07:03:06.896Z,33.79
2018-04-22T07:05:34.471Z,33.58
2018-04-22T07:08:02.036Z,33.75
2018-04-22T07:10:29.699Z,33.31
2018-04-22T07:12:57.294Z,33.31
2018-04-22T07:15:24.879Z,33.40
2018-04-22T07:17:52.481Z,33.49
2018-04-22T07:20:20.068Z,33.97
2018-04-22T07:22:47.645Z,34.83
2018-04-22T07:25:15.261Z,35.06
2018-04-22T07:27:42.842Z,34.78
2018-04-22T07:30:10.493Z,34.79
2018-04-22T07:32:38.111Z,34.49
2018-04-22T07:35:05.692Z,34.18
2018-04-22T07:37:33.283Z,34.69
2018-04-22T07:40:00.930Z,34.85
2018-04-22T07:42:28.707Z,34.06
2018-04-22T07:44:56.265Z,34.46
2018-04-22T07:47:23.862Z,33.32
2018-04-22T07:49:51.430Z,34.03
2018-04-22T07:52:19.007Z,34.44
2018-04-22T07:54:46.628Z,34.85
2018-04-22T07:57:14.200Z,35.45
2018-04-22T07:59:41.776Z,34.37
2018-04-22T08:02:09.481Z,34.47
2018-04-22T08:04:37.064Z,34.09
2018-04-22T08:07:04.646Z,33.61
2018-04-22T08:09:32.260Z,34.48
2018-04-22T08:11:59.836Z,34.51
2018-04-22T08:14:27.476Z,34.71
2018-04-22T08:16:55.108Z,34.97
2018-04-22T08:19:22.688Z,34.84
2018-04-22T08:21:50.268Z,35.05
2018-04-22T08:24:17.880Z,35.21
2018-04-22T08:26:45.465Z,34.31
2018-04-22T08:29:13.039Z,35.06
2018-04-22T08:31:40.646Z,35.23
2018-04-22T08:34:08.268Z,35.66
2018-04-22T08:36:35.852Z,35.42
2018-04-22T08:39:03.550Z,34.82
2018-04-22T08:41:31.155Z,35.14
2018-04-22T08:43:58.772Z,35.15
2018-04-22T08:46:26.387Z,35.24
2018-04-22T08:48:53.956Z,34.95
2018-04-22T08:51:21.540Z,35.20
2018-04-22T08:53:49.160Z,34.95
2018-04-22T08:56:16.738Z,35.65
2018-04-22T08:58:44.317Z,35.38
2018-04-22T09:01:11.914Z,33.70
2018-04-22T09:03:39.528Z,34.35
2018-04-22T09:06:07.111Z,35.77
2018-04-22T09:08:34.737Z,35.66
2018-04-22T09:11:02.312Z,35.48
2018-04-22T09:13:29.934Z,33.93
2018-04-22T09:15:57.550Z,34.18
2018-04-22T09:18:25.118Z,34.56
2018-04-22T09:20:52.688Z,34.81
2018-04-22T09:23:20.338Z,35.20
2018-04-22T09:25:47.928Z,35.37
2018-04-22T09:28:15.530Z,35.84
2018-04-22T09:30:43.200Z,36.40
2018-04-22T09:33:10.792Z,34.50
2018-04-22T09:35:38.378Z,35.77
2018-04-22T09:38:05.989Z,36.28
2018-04-22T09:40:33.572Z,35.52
2018-04-22T09:43:01.144Z,35.79
2018-04-22T09:45:28.748Z,35.48
2018-04-22T09:47:56.331Z,36.70
2018-04-22T09:50:23.887Z,36.52
2018-04-22T09:52:51.470Z,35.76
2018-04-22T09:55:19.040Z,34.84
2018-04-22T09:57:46.788Z,33.90
2018-04-22T10:00:19.910Z,34.10
2018-04-22T10:02:48.426Z,34.90
2018-04-22T10:05:16.039Z,34.32
2018-04-22T10:07:43.659Z,35.58
2018-04-22T10:10:11.241Z,36.14
2018-04-22T10:12:38.820Z,34.59
2018-04-22T10:15:06.442Z,35.41
2018-04-22T10:17:34.022Z,37.25
2018-04-22T10:20:01.584Z,38.03
2018-04-22T10:22:29.185Z,38.40
2018-04-22T10:24:56.763Z,38.77
2018-04-22T10:27:24.353Z,39.05
2018-04-22T10:29:51.970Z,39.83
2018-04-22T10:32:19.542Z,39.47
2018-04-22T10:34:47.113Z,39.30
2018-04-22T10:37:14.806Z,39.51
2018-04-22T10:39:46.116Z,39.41
2018-04-22T10:42:13.908Z,39.83
2018-04-22T10:44:41.520Z,39.04
2018-04-22T10:47:09.127Z,38.46
2018-04-22T10:49:36.709Z,38.08
2018-04-22T10:52:04.453Z,37.81
2018-04-22T10:54:32.032Z,38.08
2018-04-22T10:56:59.609Z,37.72
2018-04-22T10:59:27.233Z,37.22
2018-04-22T11:01:54.813Z,37.13
2018-04-22T11:04:22.408Z,38.34
2018-04-22T11:06:50.020Z,37.63
2018-04-22T11:09:17.602Z,37.48
2018-04-22T11:11:45.166Z,37.23
2018-04-22T11:14:12.843Z,37.08
2018-04-22T11:16:40.432Z,37.46
2018-04-22T11:19:08.020Z,38.15
2018-04-22T11:21:35.661Z,37.54
2018-04-22T11:24:03.315Z,37.24
2018-04-22T11:26:30.892Z,36.71
2018-04-22T11:28:58.496Z,37.47
2018-04-22T11:31:26.066Z,37.80
2018-04-22T11:33:53.658Z,38.35
2018-04-22T11:36:21.270Z,38.12
2018-04-22T11:38:48.857Z,37.34
2018-04-22T11:41:16.454Z,38.36
2018-04-22T11:43:44.078Z,36.75
2018-04-22T11:46:11.644Z,37.03
2018-04-22T11:48:39.223Z,37.36
2018-04-22T11:51:06.881Z,37.38
2018-04-22T11:53:34.526Z,37.27
2018-04-22T11:56:02.150Z,37.39
2018-04-22T11:58:29.835Z,37.71
2018-04-22T12:00:57.416Z,38.12
2018-04-22T12:03:24.976Z,38.96
2018-04-22T12:05:52.583Z,40.01
2018-04-22T12:08:20.170Z,41.19
2018-04-22T12:10:47.757Z,41.48
2018-04-22T12:13:15.376Z,40.78
2018-04-22T12:15:42.939Z,40.50
2018-04-22T12:18:10.516Z,39.25
2018-04-22T12:20:38.158Z,38.23
2018-04-22T12:23:05.752Z,38.12
2018-04-22T12:25:33.309Z,37.95
2018-04-22T12:28:01.001Z,37.97
2018-04-22T12:30:28.583Z,37.90
2018-04-22T12:32:56.160Z,38.00
2018-04-22T12:35:23.764Z,37.31
2018-04-22T12:37:51.387Z,36.79
2018-04-22T12:40:18.974Z,37.29
2018-04-22T12:42:46.606Z,38.21
2018-04-22T12:45:14.167Z,38.05
2018-04-22T12:47:41.749Z,37.67
2018-04-22T12:50:09.351Z,37.67
2018-04-22T12:52:36.906Z,38.29
2018-04-22T12:55:04.479Z,37.50
2018-04-22T12:57:32.082Z,36.77
2018-04-22T12:59:59.687Z,37.50
2018-04-22T13:02:27.306Z,36.76
2018-04-22T13:04:54.923Z,35.36
2018-04-22T13:07:22.524Z,33.66
2018-04-22T13:09:50.102Z,32.91
2018-04-22T13:12:17.694Z,32.46
2018-04-22T13:14:45.262Z,32.02
2018-04-22T13:17:12.888Z,31.39
2018-04-22T13:19:40.532Z,30.67
2018-04-22T13:22:08.112Z,30.26
2018-04-22T13:24:35.680Z,30.37
2018-04-22T13:27:03.537Z,30.21
2018-04-22T13:29:31.129Z,29.87
2018-04-22T13:31:58.763Z,29.66
2018-04-22T13:34:26.529Z,29.70
2018-04-22T13:36:54.125Z,29.54
2018-04-22T13:39:21.703Z,29.47
2018-04-22T13:41:49.313Z,29.56
2018-04-22T13:44:16.912Z,29.75
2018-04-22T13:46:44.487Z,29.79
2018-04-22T13:49:12.134Z,29.75
2018-04-22T13:51:39.710Z,29.84
2018-04-22T13:54:07.278Z,29.78
2018-04-22T13:56:34.892Z,29.66
2018-04-22T13:59:02.482Z,29.39
2018-04-22T14:01:30.077Z,29.09
2018-04-22T14:03:57.712Z,28.72
2018-04-22T14:06:25.327Z,28.60
2018-04-22T14:08:52.921Z,28.61
2018-04-22T14:11:20.533Z,28.41
2018-04-22T14:13:48.123Z,28.39
2018-04-22T14:16:15.722Z,28.40
2018-04-22T14:18:43.329Z,28.17
2018-04-22T14:21:10.896Z,28.22
2018-04-22T14:23:38.449Z,28.16
2018-04-22T14:26:06.043Z,28.05
2018-04-22T14:28:33.625Z,27.97
2018-04-22T14:31:01.206Z,28.04
2018-04-22T14:33:28.840Z,28.05
2018-04-22T14:35:56.413Z,28.06
2018-04-22T14:38:24.009Z,28.08
2018-04-22T14:40:51.631Z,28.10
2018-04-22T14:43:19.210Z,28.09
2018-04-22T14:45:58.652Z,28.06
2018-04-22T14:48:26.244Z,28.07
2018-04-22T14:50:53.858Z,28.07
2018-04-22T14:53:22.031Z,28.07
2018-04-22T14:55:49.702Z,28.05
2018-04-22T14:58:17.406Z,27.98
2018-04-22T15:00:45.470Z,27.99
2018-04-22T15:03:13.048Z,27.88
2018-04-22T15:05:40.632Z,27.87
2018-04-22T15:08:08.252Z,27.78
2018-04-22T15:10:35.913Z,27.67
2018-04-22T15:13:03.493Z,27.63
2018-04-22T15:15:31.103Z,27.65
2018-04-22T15:17:58.695Z,27.65
2018-04-22T15:20:26.287Z,27.65
2018-04-22T15:22:53.899Z,27.60
2018-04-22T15:25:21.484Z,27.53
2018-04-22T15:27:49.192Z,27.47
2018-04-22T15:30:16.809Z,27.35
2018-04-22T15:32:44.370Z,27.27
2018-04-22T15:35:11.955Z,27.13
2018-04-22T15:37:39.569Z,27.13
2018-04-22T15:40:07.185Z,27.12
2018-04-22T15:42:34.831Z,27.02
2018-04-22T15:45:02.458Z,26.98
2018-04-22T15:47:30.028Z,26.80
2018-04-22T15:49:57.617Z,26.79
2018-04-22T15:52:25.215Z,26.74
2018-04-22T15:54:52.797Z,26.74
2018-04-22T15:57:20.388Z,26.73
2018-04-22T15:59:47.967Z,26.68
2018-04-22T16:02:15.536Z,26.59
2018-04-22T16:04:43.113Z,26.51
2018-04-22T16:07:10.732Z,26.43
2018-04-22T16:09:38.358Z,26.36
2018-04-22T16:12:05.933Z,26.20
2018-04-22T16:14:33.692Z,26.12
2018-04-22T16:17:01.226Z,25.90
2018-04-22T16:19:28.806Z,25.72
2018-04-22T16:21:56.474Z,25.55
2018-04-22T16:24:24.022Z,25.34
2018-04-22T16:26:51.653Z,25.13
2018-04-22T16:29:19.309Z,25.00
2018-04-22T16:31:46.882Z,24.80
2018-04-22T16:34:14.459Z,24.64
2018-04-22T16:36:42.076Z,24.44
2018-04-22T16:39:09.645Z,24.20
2018-04-22T16:41:37.260Z,23.98
2018-04-22T16:44:04.880Z,23.77
2018-04-22T16:46:32.457Z,23.54
2018-04-22T16:49:00.047Z,23.30
2018-04-22T16:51:27.656Z,23.05
2018-04-22T16:53:55.231Z,22.83
2018-04-22T16:56:22.805Z,22.62
2018-04-22T16:58:50.693Z,22.42
2018-04-22T17:01:18.310Z,22.22
2018-04-22T17:03:45.913Z,22.00
2018-04-22T17:06:13.545Z,21.87
2018-04-22T17:08:41.179Z,21.66
2018-04-22T17:11:08.754Z,21.55
2018-04-22T17:13:36.363Z,21.37
2018-04-22T17:16:03.960Z,21.20
2018-04-22T17:18:31.567Z,20.98
2018-04-22T17:20:59.219Z,20.75
2018-04-22T17:23:26.898Z,20.58
2018-04-22T17:25:54.468Z,20.43
2018-04-22T17:28:25.562Z,20.19
2018-04-22T17:30:53.508Z,19.95
2018-04-22T17:33:21.072Z,19.86
2018-04-22T17:35:48.685Z,19.68
2018-04-22T17:38:16.266Z,19.55
2018-04-22T17:40:43.879Z,19.46
2018-04-22T17:43:11.500Z,19.27
2018-04-22T17:45:39.083Z,19.17
2018-04-22T17:48:06.669Z,19.07
2018-04-22T17:50:34.288Z,18.93
2018-04-22T17:53:02.020Z,18.80
2018-04-22T17:55:29.576Z,18.73
2018-04-22T17:57:57.206Z,18.58
2018-04-22T18:00:24.812Z,18.54
2018-04-22T18:02:52.426Z,18.44
2018-04-22T18:05:20.035Z,18.32
2018-04-22T18:07:47.614Z,18.21
2018-04-22T18:10:15.196Z,18.06
2018-04-22T18:12:42.825Z,17.93
2018-04-22T18:15:11.397Z,17.82
2018-04-22T18:17:38.969Z,17.71
2018-04-22T18:20:06.581Z,17.60
2018-04-22T18:22:34.155Z,17.55
2018-04-22T18:25:01.869Z,17.46
2018-04-22T18:27:29.694Z,17.33
2018-04-22T18:29:57.272Z,17.26
2018-04-22T18:32:24.841Z,17.28
2018-04-22T18:34:52.461Z,17.33
2018-04-22T18:37:20.020Z,17.22
2018-04-22T18:39:47.596Z,17.15
2018-04-22T18:42:15.228Z,17.06
2018-04-22T18:44:42.835Z,16.98
2018-04-22T18:47:10.466Z,17.02
2018-04-22T18:49:38.073Z,16.88
2018-04-22T18:52:05.732Z,16.72
2018-04-22T18:54:33.334Z,16.55
2018-04-22T18:57:00.967Z,16.33
2018-04-22T18:59:29.301Z,16.28
2018-04-22T19:01:56.980Z,16.22
2018-04-22T19:04:24.645Z,16.20
2018-04-22T19:06:52.274Z,16.05
2018-04-22T19:09:19.940Z,15.98
2018-04-22T19:11:47.582Z,15.92
2018-04-22T19:14:15.168Z,15.93
2018-04-22T19:16:42.753Z,15.86
2018-04-22T19:19:10.371Z,15.73
2018-04-22T19:21:37.953Z,15.73
2018-04-22T19:24:05.532Z,15.68
2018-04-22T19:26:33.147Z,15.55
2018-04-22T19:29:00.726Z,15.64
2018-04-22T19:31:28.316Z,15.49
2018-04-22T19:33:55.935Z,15.37
2018-04-22T19:36:23.514Z,15.31
2018-04-22T19:38:51.117Z,15.24
2018-04-22T19:41:18.733Z,15.12
2018-04-22T19:43:46.339Z,15.03
2018-04-22T19:46:13.941Z,15.18
2018-04-22T19:48:41.595Z,15.21
2018-04-22T19:51:09.162Z,15.03
2018-04-22T19:53:36.747Z,14.84
2018-04-22T19:56:04.412Z,14.62
2018-04-22T19:58:32.003Z,14.47
2018-04-22T20:00:59.618Z,14.49
2018-04-22T20:03:27.279Z,14.37
2018-04-22T20:05:54.875Z,14.30
2018-04-22T20:08:22.455Z,14.34
2018-04-22T20:10:50.135Z,14.23
2018-04-22T20:13:17.728Z,14.14
2018-04-22T20:15:45.302Z,14.00
2018-04-22T20:18:12.931Z,13.87
2018-04-22T20:20:40.503Z,13.81
2018-04-22T20:23:08.215Z,13.78
2018-04-22T20:25:35.839Z,13.70
2018-04-22T20:28:03.507Z,13.79
2018-04-22T20:30:31.184Z,13.73
2018-04-22T20:32:58.814Z,13.66
2018-04-22T20:35:26.522Z,13.57
2018-04-22T20:37:54.104Z,13.55
2018-04-22T20:40:22.656Z,13.46
2018-04-22T20:42:50.231Z,13.34
2018-04-22T20:45:17.796Z,13.30
2018-04-22T20:47:45.400Z,13.28
2018-04-22T20:50:12.977Z,13.19
2018-04-22T20:52:40.571Z,13.18
2018-04-22T20:55:08.176Z,13.13
2018-04-22T20:57:35.770Z,13.09
2018-04-22T21:00:03.336Z,13.01
2018-04-22T21:02:30.955Z,12.90
2018-04-22T21:04:58.518Z,12.89
2018-04-22T21:07:26.074Z,12.83
2018-04-22T21:09:53.676Z,12.71
2018-04-22T21:12:21.273Z,12.67
2018-04-22T21:14:48.830Z,12.61
2018-04-22T21:17:16.409Z,12.63
2018-04-22T21:19:44.001Z,12.55
2018-04-22T21:22:11.668Z,12.51
2018-04-22T21:24:39.237Z,12.45
2018-04-22T21:27:06.868Z,12.51
2018-04-22T21:29:34.440Z,12.43
2018-04-22T21:32:02.009Z,12.41
2018-04-22T21:34:29.779Z,12.39
2018-04-22T21:36:57.323Z,12.38
2018-04-22T21:39:24.884Z,12.37
2018-04-22T21:41:52.577Z,12.35
2018-04-22T21:44:20.144Z,12.30
2018-04-22T21:46:47.717Z,12.24
2018-04-22T21:49:15.363Z,12.17
2018-04-22T21:51:42.918Z,12.10
2018-04-22T21:54:10.673Z,12.04
2018-04-22T21:56:38.300Z,12.03
2018-04-22T21:59:05.911Z,12.05
2018-04-22T22:01:33.489Z,11.97
2018-04-22T22:04:01.104Z,11.89
2018-04-22T22:06:28.792Z,11.86
2018-04-22T22:08:56.456Z,11.81
2018-04-22T22:11:24.075Z,11.76
2018-04-22T22:13:51.656Z,11.70
2018-04-22T22:16:19.266Z,11.68
2018-04-22T22:18:46.867Z,11.72
2018-04-22T22:21:14.459Z,11.72
2018-04-22T22:23:42.036Z,11.66
2018-04-22T22:26:09.643Z,11.68
2018-04-22T22:28:37.212Z,11.68
2018-04-22T22:31:05.005Z,11.75
2018-04-22T22:33:32.622Z,11.68
2018-04-22T22:36:00.182Z,11.58
2018-04-22T22:38:27.741Z,11.49
2018-04-22T22:40:55.358Z,11.51
2018-04-22T22:43:23.300Z,11.46
2018-04-22T22:45:50.982Z,11.41
2018-04-22T22:48:18.608Z,11.32
2018-04-22T22:50:46.247Z,11.23
2018-04-22T22:53:13.966Z,11.21
2018-04-22T22:55:41.605Z,11.14
2018-04-22T22:58:09.175Z,11.10
2018-04-22T23:00:36.941Z,11.05
2018-04-22T23:03:04.552Z,10.97
2018-04-22T23:05:32.279Z,10.99
2018-04-22T23:07:59.840Z,10.90
2018-04-22T23:10:27.444Z,10.87
2018-04-22T23:12:55.004Z,10.87
2018-04-22T23:15:22.619Z,10.83
2018-04-22T23:17:50.229Z,10.82
2018-04-22T23:20:17.934Z,10.84
2018-04-22T23:22:45.603Z,10.86
2018-04-22T23:25:13.220Z,10.88
2018-04-22T23:27:40.795Z,10.95
2018-04-22T23:30:08.355Z,10.94
2018-04-22T23:32:35.939Z,10.78
2018-04-22T23:35:03.491Z,10.73
2018-04-22T23:37:31.056Z,10.78
2018-04-22T23:39:58.658Z,10.82
2018-04-22T23:42:26.228Z,10.72
2018-04-22T23:44:53.787Z,10.68
2018-04-22T23:47:21.405Z,10.60
2018-04-22T23:49:49.052Z,10.52
2018-04-22T23:52:16.710Z,10.48
2018-04-22T23:54:44.288Z,10.41
2018-04-22T23:57:11.882Z,10.34
2018-04-22T23:59:39.538Z,10.35
